createdAt,value
2022-08-17T00:00:43.055Z,100689.78
2022-08-17T00:03:39.103Z,100693.78
2022-08-17T00:06:12.372Z,100691.50
2022-08-17T00:08:42.975Z,100700.47
2022-08-17T00:11:21.560Z,100688.16
2022-08-17T00:14:00.007Z,100686.41
2022-08-17T00:16:56.058Z,100690.22
2022-08-17T00:19:25.852Z,100691.16
2022-08-17T00:22:34.522Z,100694.06
2022-08-17T00:24:50.570Z,100697.69
2022-08-17T00:27:18.564Z,100687.50
2022-08-17T00:29:46.115Z,100693.03
2022-08-17T00:33:15.124Z,100689.25
2022-08-17T00:35:06.767Z,100694.13
2022-08-17T00:37:36.174Z,100688.91
2022-08-17T00:40:04.618Z,100694.34
2022-08-17T00:42:33.078Z,100700.19
2022-08-17T00:45:00.037Z,100692.47
2022-08-17T00:47:30.034Z,100698.94
2022-08-17T00:49:56.898Z,100696.41
2022-08-17T00:52:31.551Z,100689.63
2022-08-17T00:55:01.908Z,100689.63
2022-08-17T00:57:36.632Z,100695.66
2022-08-17T01:00:21.343Z,100695.81
2022-08-17T01:02:55.358Z,100696.66
2022-08-17T01:05:27.624Z,100689.97
2022-08-17T01:07:58.796Z,100690.38
2022-08-17T01:10:58.765Z,100683.25
2022-08-17T01:13:28.626Z,100688.38
2022-08-17T01:16:12.887Z,100679.75
2022-08-17T01:18:44.886Z,100691.13
2022-08-17T01:21:48.539Z,100700.84
2022-08-17T01:24:16.157Z,100701.50
2022-08-17T01:26:44.849Z,100688.78
2022-08-17T01:29:13.023Z,100699.00
2022-08-17T01:31:46.413Z,100692.19
2022-08-17T01:34:19.446Z,100691.13
2022-08-17T01:36:49.444Z,100691.38
2022-08-17T01:39:38.440Z,100697.16
2022-08-17T01:42:27.246Z,100702.28
2022-08-17T01:44:58.959Z,100705.66
2022-08-17T01:47:26.192Z,100701.81
2022-08-17T01:49:56.466Z,100694.22
2022-08-17T01:52:23.780Z,100691.47
2022-08-17T01:54:52.589Z,100704.16
2022-08-17T01:57:19.619Z,100700.38
2022-08-17T01:59:48.809Z,100693.22
2022-08-17T02:02:30.482Z,100691.53
2022-08-17T02:04:58.803Z,100700.22
2022-08-17T02:07:26.158Z,100709.09
2022-08-17T02:09:54.072Z,100701.50
2022-08-17T02:12:39.328Z,100709.88
2022-08-17T02:15:15.192Z,100710.22
2022-08-17T02:17:43.410Z,100714.31
2022-08-17T02:20:10.875Z,100706.72
2022-08-17T02:22:41.198Z,100709.88
2022-08-17T02:25:12.377Z,100700.50
2022-08-17T02:27:41.766Z,100707.56
2022-08-17T02:30:59.760Z,100703.34
2022-08-17T02:33:06.407Z,100710.22
2022-08-17T02:35:42.911Z,100713.09
2022-08-17T02:38:10.325Z,100708.53
2022-08-17T02:40:37.532Z,100716.56
2022-08-17T02:43:05.270Z,100703.25
2022-08-17T02:45:32.334Z,100711.16
2022-08-17T02:47:59.411Z,100715.47
2022-08-17T02:50:26.823Z,100717.88
2022-08-17T02:53:01.735Z,100719.69
2022-08-17T02:55:43.024Z,100708.31
2022-08-17T02:58:12.203Z,100710.22
2022-08-17T03:00:44.195Z,100712.13
2022-08-17T03:03:13.576Z,100717.41
2022-08-17T03:05:44.310Z,100709.25
2022-08-17T03:08:12.959Z,100705.41
2022-08-17T03:10:41.368Z,100702.97
2022-08-17T03:13:08.786Z,100707.56
2022-08-17T03:15:43.862Z,100701.56
2022-08-17T03:18:19.249Z,100705.16
2022-08-17T03:20:54.517Z,100709.47
2022-08-17T03:23:25.358Z,100713.56
2022-08-17T03:25:54.083Z,100710.31
2022-08-17T03:28:22.015Z,100707.56
2022-08-17T03:30:51.697Z,100705.41
2022-08-17T03:33:21.748Z,100712.59
2022-08-17T03:35:49.334Z,100709.84
2022-08-17T03:38:17.850Z,100706.38
2022-08-17T03:40:58.021Z,100709.59
2022-08-17T03:43:29.199Z,100705.41
2022-08-17T03:46:28.777Z,100708.91
2022-08-17T03:49:22.783Z,100698.94
2022-08-17T03:52:08.446Z,100703.75
2022-08-17T03:54:53.632Z,100697.28
2022-08-17T03:57:20.518Z,100701.94
2022-08-17T03:59:47.682Z,100702.53
2022-08-17T04:02:24.261Z,100701.59
2022-08-17T04:04:54.173Z,100702.19
2022-08-17T04:07:24.279Z,100707.34
2022-08-17T04:09:51.417Z,100707.94
2022-08-17T04:12:21.102Z,100721.97
2022-08-17T04:14:51.637Z,100708.78
2022-08-17T04:17:26.919Z,100706.63
2022-08-17T04:19:54.980Z,100711.66
2022-08-17T04:22:33.318Z,100711.19
2022-08-17T04:25:17.770Z,100710.34
2022-08-17T04:27:48.745Z,100721.47
2022-08-17T04:30:20.737Z,100717.66
2022-08-17T04:33:15.066Z,100717.66
2022-08-17T04:35:45.873Z,100725.56
2022-08-17T04:38:17.212Z,100715.63
2022-08-17T04:41:03.525Z,100727.38
2022-08-17T04:43:32.306Z,100717.06
2022-08-17T04:46:06.312Z,100727.81
2022-08-17T04:48:43.088Z,100721.22
2022-08-17T04:51:13.660Z,100720.66
2022-08-17T04:53:45.203Z,100720.66
2022-08-17T04:56:16.933Z,100722.22
2022-08-17T04:58:48.314Z,100725.94
2022-08-17T05:01:24.529Z,100723.41
2022-08-17T05:03:59.376Z,100722.09
2022-08-17T05:06:28.369Z,100727.38
2022-08-17T05:08:57.144Z,100729.28
2022-08-17T05:11:28.656Z,100732.03
2022-08-17T05:13:58.110Z,100725.97
2022-08-17T05:16:29.668Z,100737.81
2022-08-17T05:19:04.585Z,100743.78
2022-08-17T05:21:31.657Z,100736.03
2022-08-17T05:23:59.603Z,100748.41
2022-08-17T05:26:32.434Z,100743.38
2022-08-17T05:29:03.484Z,100748.88
2022-08-17T05:31:33.625Z,100749.66
2022-08-17T05:34:00.707Z,100750.50
2022-08-17T05:36:37.986Z,100752.66
2022-08-17T05:39:17.077Z,100749.41
2022-08-17T05:41:50.692Z,100749.25
2022-08-17T05:44:17.568Z,100751.69
2022-08-17T05:46:50.929Z,100751.50
2022-08-17T05:49:24.827Z,100746.88
2022-08-17T05:52:29.401Z,100741.06
2022-08-17T05:55:14.603Z,100751.19
2022-08-17T05:57:59.919Z,100747.78
2022-08-17T06:00:42.090Z,100749.97
2022-08-17T06:03:57.065Z,100751.19
2022-08-17T06:06:49.119Z,100755.97
2022-08-17T06:09:48.048Z,100759.47
2022-08-17T06:12:43.019Z,100755.16
2022-08-17T06:15:33.285Z,100760.09
2022-08-17T06:18:08.640Z,100759.19
2022-08-17T06:20:53.812Z,100755.94
2022-08-17T06:23:34.989Z,100757.50
2022-08-17T06:26:39.585Z,100758.59
2022-08-17T06:29:38.976Z,100766.19
2022-08-17T06:32:09.842Z,100765.44
2022-08-17T06:34:41.624Z,100769.44
2022-08-17T06:37:33.167Z,100767.09
2022-08-17T06:40:17.355Z,100764.38
2022-08-17T06:43:06.611Z,100758.06
2022-08-17T06:45:49.210Z,100762.03
2022-08-17T06:48:33.202Z,100771.78
2022-08-17T06:51:20.395Z,100777.41
2022-08-17T06:54:20.596Z,100769.06
2022-08-17T06:57:18.778Z,100773.00
2022-08-17T06:59:56.924Z,100776.41
2022-08-17T07:02:52.884Z,100775.84
2022-08-17T07:05:26.349Z,100775.00
2022-08-17T07:08:02.072Z,100782.78
2022-08-17T07:10:50.761Z,100773.84
2022-08-17T07:13:33.242Z,100780.81
2022-08-17T07:16:25.768Z,100772.75
2022-08-17T07:18:57.258Z,100764.59
2022-08-17T07:21:47.758Z,100771.19
2022-08-17T07:24:39.368Z,100773.31
2022-08-17T07:27:31.196Z,100774.31
2022-08-17T07:30:10.096Z,100768.97
2022-08-17T07:32:53.874Z,100768.97
2022-08-17T07:35:44.092Z,100774.75
2022-08-17T07:38:28.172Z,100769.19
2022-08-17T07:41:01.091Z,100774.88
2022-08-17T07:43:34.713Z,100781.78
2022-08-17T07:46:40.035Z,100775.31
2022-08-17T07:49:09.940Z,100783.75
2022-08-17T07:51:41.138Z,100778.41
2022-08-17T07:54:22.289Z,100775.56
2022-08-17T07:57:01.455Z,100775.09
2022-08-17T07:59:34.035Z,100779.50
2022-08-17T08:02:23.327Z,100789.81
2022-08-17T08:05:48.765Z,100783.06
2022-08-17T08:08:22.775Z,100780.25
2022-08-17T08:11:05.486Z,100780.84
2022-08-17T08:13:33.418Z,100787.22
2022-08-17T08:16:12.446Z,100796.59
2022-08-17T08:18:55.915Z,100788.56
2022-08-17T08:21:59.095Z,100798.63
2022-08-17T08:25:08.908Z,100796.00
2022-08-17T08:28:05.983Z,100793.59
2022-08-17T08:30:41.459Z,100798.38
2022-08-17T08:33:32.740Z,100798.00
2022-08-17T08:36:57.109Z,100801.59
2022-08-17T08:39:25.891Z,100815.03
2022-08-17T08:42:43.185Z,100810.94
2022-08-17T08:45:28.325Z,100805.50
2022-08-17T08:48:53.122Z,100810.34
2022-08-17T08:51:36.577Z,100813.66
2022-08-17T08:54:20.361Z,100816.03
2022-08-17T08:57:25.566Z,100819.19
2022-08-17T09:00:00.809Z,100813.47
2022-08-17T09:03:03.875Z,100820.41
2022-08-17T09:06:28.675Z,100818.97
2022-08-17T09:08:58.521Z,100818.78
2022-08-17T09:12:02.024Z,100815.47
2022-08-17T09:15:13.239Z,100815.88
2022-08-17T09:19:02.431Z,100813.13
2022-08-17T09:21:48.260Z,100813.75
2022-08-17T09:24:32.089Z,100813.38
2022-08-17T09:27:19.799Z,100815.16
2022-08-17T09:29:52.347Z,100819.59
2022-08-17T09:32:38.132Z,100823.78
2022-08-17T09:35:22.877Z,100819.38
2022-08-17T09:38:08.227Z,100822.00
2022-08-17T09:40:46.503Z,100819.69
2022-08-17T09:43:33.591Z,100818.53
2022-08-17T09:46:10.136Z,100823.34
2022-08-17T09:49:42.499Z,100817.22
2022-08-17T09:52:20.081Z,100820.22
2022-08-17T09:54:48.835Z,100811.84
2022-08-17T09:57:31.417Z,100813.81
2022-08-17T10:00:23.689Z,100810.88
2022-08-17T10:03:50.919Z,100811.47
2022-08-17T10:06:40.267Z,100812.16
2022-08-17T10:09:35.531Z,100818.06
2022-08-17T10:12:20.619Z,100822.25
2022-08-17T10:15:18.959Z,100819.03
2022-08-17T10:18:21.404Z,100816.50
2022-08-17T10:21:30.068Z,100813.84
2022-08-17T10:24:36.973Z,100818.00
2022-08-17T10:27:11.621Z,100817.94
2022-08-17T10:30:04.656Z,100818.09
2022-08-17T10:32:43.364Z,100810.88
2022-08-17T10:35:12.958Z,100809.06
2022-08-17T10:38:16.758Z,100808.66
2022-08-17T10:40:59.077Z,100806.44
2022-08-17T10:43:57.815Z,100800.47
2022-08-17T10:47:15.412Z,100792.50
2022-08-17T10:49:53.730Z,100798.91
2022-08-17T10:52:20.847Z,100784.69
2022-08-17T10:54:51.431Z,100791.75
2022-08-17T10:57:33.036Z,100789.16
2022-08-17T11:00:40.180Z,100792.00
2022-08-17T11:03:23.640Z,100799.25
2022-08-17T11:06:06.343Z,100789.59
2022-08-17T11:09:15.172Z,100787.09
2022-08-17T11:12:26.262Z,100777.63
2022-08-17T11:15:24.558Z,100769.41
2022-08-17T11:18:35.744Z,100769.47
2022-08-17T11:21:55.497Z,100769.53
2022-08-17T11:24:46.936Z,100771.72
2022-08-17T11:27:33.730Z,100764.53
2022-08-17T11:30:44.511Z,100763.38
2022-08-17T11:33:33.984Z,100755.91
2022-08-17T11:36:19.691Z,100760.91
2022-08-17T11:39:26.536Z,100775.09
2022-08-17T11:42:47.290Z,100772.78
2022-08-17T11:45:51.774Z,100768.16
2022-08-17T11:49:18.730Z,100762.03
2022-08-17T11:52:00.316Z,100755.44
2022-08-17T11:54:33.396Z,100760.63
2022-08-17T11:57:26.783Z,100760.34
2022-08-17T12:00:08.359Z,100758.25
2022-08-17T12:02:48.454Z,100753.13
2022-08-17T12:05:18.307Z,100755.88
2022-08-17T12:07:52.810Z,100754.53
2022-08-17T12:10:31.936Z,100746.19
2022-08-17T12:13:06.207Z,100738.25
2022-08-17T12:15:42.422Z,100741.38
2022-08-17T12:18:32.260Z,100745.69
2022-08-17T12:21:26.331Z,100748.81
2022-08-17T12:24:13.170Z,100752.22
2022-08-17T12:26:44.132Z,100752.66
2022-08-17T12:29:18.027Z,100753.13
2022-08-17T12:32:07.014Z,100746.28
2022-08-17T12:34:42.113Z,100738.53
2022-08-17T12:37:26.142Z,100738.34
2022-08-17T12:40:00.860Z,100746.38
2022-08-17T12:42:34.791Z,100736.72
2022-08-17T12:45:01.836Z,100739.38
2022-08-17T12:47:30.425Z,100741.16
2022-08-17T12:50:29.557Z,100729.66
2022-08-17T12:53:02.281Z,100727.41
2022-08-17T12:55:36.687Z,100724.22
2022-08-17T12:58:09.935Z,100726.78
2022-08-17T13:00:48.580Z,100733.63
2022-08-17T13:03:19.330Z,100721.59
2022-08-17T13:05:52.337Z,100723.66
2022-08-17T13:08:26.138Z,100713.94
2022-08-17T13:11:03.914Z,100704.41
2022-08-17T13:13:38.995Z,100698.72
2022-08-17T13:16:11.962Z,100701.81
2022-08-17T13:18:50.889Z,100703.53
2022-08-17T13:21:23.456Z,100699.56
2022-08-17T13:24:09.949Z,100688.72
2022-08-17T13:27:01.062Z,100697.47
2022-08-17T13:29:53.816Z,100697.31
2022-08-17T13:32:54.239Z,100697.88
2022-08-17T13:35:47.135Z,100701.25
2022-08-17T13:38:45.719Z,100686.78
2022-08-17T13:41:40.503Z,100687.53
2022-08-17T13:44:30.053Z,100676.38
2022-08-17T13:47:01.000Z,100683.19
2022-08-17T13:49:48.129Z,100683.34
2022-08-17T13:52:54.154Z,100672.66
2022-08-17T13:55:22.856Z,100683.19
2022-08-17T13:58:03.881Z,100682.66
2022-08-17T14:00:36.804Z,100672.56
2022-08-17T14:03:05.833Z,100673.25
2022-08-17T14:05:33.861Z,100667.75
2022-08-17T14:08:06.694Z,100674.47
2022-08-17T14:10:36.680Z,100677.97
2022-08-17T14:13:09.403Z,100673.75
2022-08-17T14:15:55.102Z,100674.09
2022-08-17T14:18:55.733Z,100683.09
2022-08-17T14:21:10.783Z,100672.44
2022-08-17T14:23:38.394Z,100671.69
2022-08-17T14:26:05.863Z,100674.91
2022-08-17T14:28:32.912Z,100668.03
2022-08-17T14:31:08.311Z,100661.28
2022-08-17T14:33:35.273Z,100660.50
2022-08-17T14:36:04.671Z,100659.53
2022-08-17T14:38:35.790Z,100653.97
2022-08-17T14:41:05.609Z,100647.38
2022-08-17T14:43:34.770Z,100650.00
2022-08-17T14:46:03.890Z,100644.31
2022-08-17T14:48:32.995Z,100651.94
2022-08-17T14:51:02.346Z,100641.88
2022-08-17T14:53:31.977Z,100643.84
2022-08-17T14:56:01.914Z,100651.34
2022-08-17T14:58:29.678Z,100634.38
2022-08-17T15:00:59.739Z,100637.38
2022-08-17T15:03:30.494Z,100643.00
2022-08-17T15:05:59.901Z,100630.63
2022-08-17T15:08:26.846Z,100645.75
2022-08-17T15:10:56.222Z,100638.78
2022-08-17T15:13:27.552Z,100637.09
2022-08-17T15:15:54.791Z,100640.25
2022-08-17T15:18:25.061Z,100640.75
2022-08-17T15:20:54.719Z,100633.09
2022-08-17T15:23:24.498Z,100633.75
2022-08-17T15:25:54.987Z,100635.41
2022-08-17T15:28:22.979Z,100639.44
2022-08-17T15:30:52.668Z,100634.94
2022-08-17T15:33:30.427Z,100635.13
2022-08-17T15:36:02.753Z,100631.31
2022-08-17T15:38:30.805Z,100627.69
2022-08-17T15:40:58.398Z,100623.03
2022-08-17T15:43:32.525Z,100625.84
2022-08-17T15:46:12.419Z,100619.56
2022-08-17T15:48:42.897Z,100621.06
2022-08-17T15:51:32.575Z,100610.59
2022-08-17T15:54:17.135Z,100601.66
2022-08-17T15:56:51.634Z,100597.03
2022-08-17T15:59:20.757Z,100588.91
2022-08-17T16:03:13.294Z,100584.13
2022-08-17T16:04:35.928Z,100589.06
2022-08-17T16:07:07.219Z,100587.59
2022-08-17T16:09:34.115Z,100582.78
2022-08-17T16:12:21.131Z,100588.56
2022-08-17T16:14:50.497Z,100585.75
2022-08-17T16:17:39.052Z,100574.00
2022-08-17T16:20:20.290Z,100577.47
2022-08-17T16:22:54.173Z,100584.25
2022-08-17T16:25:50.414Z,100567.03
2022-08-17T16:28:36.239Z,100573.81
2022-08-17T16:31:08.180Z,100575.97
2022-08-17T16:33:38.950Z,100573.97
2022-08-17T16:36:10.309Z,100565.28
2022-08-17T16:38:39.665Z,100571.41
2022-08-17T16:41:06.730Z,100564.44
2022-08-17T16:43:35.891Z,100552.72
2022-08-17T16:46:02.794Z,100554.47
2022-08-17T16:48:32.556Z,100552.69
2022-08-17T16:51:02.978Z,100544.88
2022-08-17T16:53:33.951Z,100558.09
2022-08-17T16:56:00.829Z,100555.97
2022-08-17T16:58:30.751Z,100568.50
2022-08-17T17:01:00.186Z,100567.44
2022-08-17T17:03:31.907Z,100563.81
2022-08-17T17:06:27.769Z,100553.31
2022-08-17T17:09:16.377Z,100554.13
2022-08-17T17:11:50.800Z,100554.78
2022-08-17T17:14:29.500Z,100562.44
2022-08-17T17:17:06.003Z,100553.63
2022-08-17T17:19:51.239Z,100553.22
2022-08-17T17:23:05.260Z,100555.81
2022-08-17T17:25:58.254Z,100548.59
2022-08-17T17:29:11.000Z,100557.97
2022-08-17T17:31:51.389Z,100558.59
2022-08-17T17:34:22.194Z,100569.22
2022-08-17T17:37:02.115Z,100578.44
2022-08-17T17:39:44.138Z,100630.69
2022-08-17T17:42:16.667Z,100653.59
2022-08-17T17:45:05.604Z,100679.78
2022-08-17T17:47:33.924Z,100720.13
2022-08-17T17:50:06.487Z,100755.47
2022-08-17T17:52:59.488Z,100754.91
2022-08-17T17:55:47.561Z,100754.13
2022-08-17T17:59:05.400Z,100747.50
2022-08-17T18:01:57.135Z,100746.69
2022-08-17T18:04:37.929Z,100746.88
2022-08-17T18:07:26.900Z,100766.69
2022-08-17T18:10:33.679Z,100790.06
2022-08-17T18:13:26.708Z,100797.06
2022-08-17T18:16:00.920Z,100737.41
2022-08-17T18:18:44.178Z,100723.38
2022-08-17T18:21:20.322Z,100715.22
2022-08-17T18:24:02.820Z,100707.31
2022-08-17T18:26:53.687Z,100694.66
2022-08-17T18:29:38.822Z,100702.53
2022-08-17T18:32:27.107Z,100702.91
2022-08-17T18:35:27.638Z,100708.31
2022-08-17T18:38:20.413Z,100707.34
2022-08-17T18:41:30.405Z,100706.53
2022-08-17T18:44:35.611Z,100708.97
2022-08-17T18:47:40.513Z,100700.38
2022-08-17T18:50:36.242Z,100700.56
2022-08-17T18:53:33.229Z,100685.63
2022-08-17T18:56:30.692Z,100681.59
2022-08-17T18:59:26.950Z,100694.53
2022-08-17T19:02:01.897Z,100688.91
2022-08-17T19:04:42.670Z,100687.13
2022-08-17T19:07:24.478Z,100682.97
2022-08-17T19:10:02.663Z,100682.38
2022-08-17T19:12:44.866Z,100680.44
2022-08-17T19:15:18.157Z,100672.69
2022-08-17T19:17:49.198Z,100673.13
2022-08-17T19:20:38.622Z,100682.75
2022-08-17T19:23:16.541Z,100678.03
2022-08-17T19:25:52.659Z,100676.84
2022-08-17T19:28:23.885Z,100672.69
2022-08-17T19:31:04.914Z,100680.22
2022-08-17T19:33:37.498Z,100675.28
2022-08-17T19:36:21.449Z,100672.13
2022-08-17T19:39:04.523Z,100675.03
2022-08-17T19:41:48.942Z,100671.78
2022-08-17T19:44:56.355Z,100675.66
2022-08-17T19:47:59.538Z,100664.94
2022-08-17T19:51:06.648Z,100666.13
2022-08-17T19:54:03.647Z,100659.22
2022-08-17T19:56:56.746Z,100663.50
2022-08-17T20:00:01.154Z,100669.69
2022-08-17T20:02:33.850Z,100658.56
2022-08-17T20:05:07.409Z,100659.94
2022-08-17T20:08:09.360Z,100661.47
2022-08-17T20:10:54.870Z,100658.69
2022-08-17T20:13:46.905Z,100664.03
2022-08-17T20:16:13.945Z,100669.09
2022-08-17T20:19:16.618Z,100666.31
2022-08-17T20:21:59.266Z,100661.22
2022-08-17T20:24:34.794Z,100665.16
2022-08-17T20:27:31.672Z,100670.00
2022-08-17T20:30:13.151Z,100672.31
2022-08-17T20:33:00.316Z,100677.22
2022-08-17T20:35:33.051Z,100663.94
2022-08-17T20:38:25.049Z,100668.97
2022-08-17T20:40:54.864Z,100680.75
2022-08-17T20:43:37.722Z,100679.91
2022-08-17T20:46:07.789Z,100674.47
2022-08-17T20:48:41.646Z,100686.19
2022-08-17T20:52:00.422Z,100691.94
2022-08-17T20:54:42.585Z,100680.34
2022-08-17T20:57:34.747Z,100673.97
2022-08-17T21:00:18.279Z,100669.94
2022-08-17T21:03:23.142Z,100674.75
2022-08-17T21:06:17.044Z,100673.84
2022-08-17T21:09:13.269Z,100682.25
2022-08-17T21:12:04.317Z,100679.19
2022-08-17T21:15:00.146Z,100674.63
2022-08-17T21:17:49.948Z,100679.25
2022-08-17T21:20:32.497Z,100689.28
2022-08-17T21:23:21.078Z,100685.16
2022-08-17T21:26:08.934Z,100690.56
2022-08-17T21:29:01.405Z,100692.69
2022-08-17T21:32:02.908Z,100694.22
2022-08-17T21:34:43.127Z,100700.78
2022-08-17T21:37:22.335Z,100701.06
2022-08-17T21:40:21.416Z,100708.06
2022-08-17T21:42:58.193Z,100706.34
2022-08-17T21:45:37.711Z,100702.59
2022-08-17T21:48:24.543Z,100704.34
2022-08-17T21:51:18.240Z,100703.81
2022-08-17T21:53:59.790Z,100694.13
2022-08-17T21:56:31.446Z,100700.84
2022-08-17T21:59:19.813Z,100694.25
2022-08-17T22:02:19.814Z,100700.25
2022-08-17T22:05:10.221Z,100691.22
2022-08-17T22:08:16.833Z,100690.78
2022-08-17T22:10:48.382Z,100693.81
2022-08-17T22:13:29.438Z,100686.44
2022-08-17T22:16:28.455Z,100695.41
2022-08-17T22:18:59.272Z,100689.97
2022-08-17T22:21:31.729Z,100674.84
2022-08-17T22:24:07.659Z,100670.84
2022-08-17T22:27:07.537Z,100676.94
2022-08-17T22:29:57.101Z,100675.19
2022-08-17T22:32:44.674Z,100666.31
2022-08-17T22:35:36.671Z,100666.59
2022-08-17T22:38:18.859Z,100671.13
2022-08-17T22:40:52.988Z,100672.97
2022-08-17T22:43:31.551Z,100676.06
2022-08-17T22:46:01.953Z,100679.41
2022-08-17T22:48:31.139Z,100673.31
2022-08-17T22:51:15.020Z,100683.94
2022-08-17T22:54:39.827Z,100672.03
2022-08-17T22:57:32.725Z,100674.41
2022-08-17T23:00:03.975Z,100676.06
2022-08-17T23:02:34.309Z,100680.59
2022-08-17T23:05:10.679Z,100673.06
2022-08-17T23:07:40.534Z,100672.63
2022-08-17T23:10:10.644Z,100677.06
2022-08-17T23:12:40.644Z,100674.41
2022-08-17T23:15:17.823Z,100677.41
2022-08-17T23:17:49.568Z,100673.38
2022-08-17T23:20:21.697Z,100667.69
2022-08-17T23:22:52.790Z,100669.19
2022-08-17T23:25:33.440Z,100668.09
2022-08-17T23:28:03.115Z,100671.56
2022-08-17T23:30:35.353Z,100670.28
2022-08-17T23:33:10.361Z,100680.59
2022-08-17T23:35:41.132Z,100680.25
2022-08-17T23:38:10.950Z,100666.69
2022-08-17T23:40:39.728Z,100668.88
2022-08-17T23:43:23.491Z,100667.69
2022-08-17T23:45:54.311Z,100669.84
2022-08-17T23:48:36.270Z,100666.25
2022-08-17T23:51:15.315Z,100665.31
2022-08-17T23:53:47.653Z,100666.16
2022-08-17T23:56:23.135Z,100666.69
2022-08-17T23:58:50.195Z,100664.31
